sensor_id;sensor_type;location;lat;lon;timestamp;pressure;altitude;pressure_sealevel;temperature;humidity
21240;BME280;10778;48.962;9.018;2023-05-20T00:00:24;99239.22;;;9.00;100.00
21240;BME280;10778;48.962;9.018;2023-05-20T00:02:50;99236.81;;;8.97;100.00
21240;BME280;10778;48.962;9.018;2023-05-20T00:05:16;99244.00;;;8.95;100.00
21240;BME280;10778;48.962;9.018;2023-05-20T00:07:43;99250.34;;;8.92;100.00
21240;BME280;10778;48.962;9.018;2023-05-20T00:10:09;99245.47;;;8.88;100.00
21240;BME280;10778;48.962;9.018;2023-05-20T00:12:37;99235.56;;;8.80;100.00
21240;BME280;10778;48.962;9.018;2023-05-20T00:15:04;99241.78;;;8.79;100.00
21240;BME280;10778;48.962;9.018;2023-05-20T00:17:30;99236.53;;;8.79;100.00
21240;BME280;10778;48.962;9.018;2023-05-20T00:19:56;99230.19;;;8.81;100.00
21240;BME280;10778;48.962;9.018;2023-05-20T00:22:22;99229.13;;;8.84;100.00
21240;BME280;10778;48.962;9.018;2023-05-20T00:24:48;99232.69;;;8.83;100.00
21240;BME280;10778;48.962;9.018;2023-05-20T00:27:14;99226.75;;;8.81;100.00
21240;BME280;10778;48.962;9.018;2023-05-20T00:29:40;99219.84;;;8.80;100.00
21240;BME280;10778;48.962;9.018;2023-05-20T00:32:06;99225.19;;;8.78;100.00
21240;BME280;10778;48.962;9.018;2023-05-20T00:34:32;99224.25;;;8.79;100.00
21240;BME280;10778;48.962;9.018;2023-05-20T00:36:58;99228.66;;;8.79;100.00
21240;BME280;10778;48.962;9.018;2023-05-20T00:39:24;99231.03;;;8.82;100.00
21240;BME280;10778;48.962;9.018;2023-05-20T00:41:50;99221.25;;;8.84;100.00
21240;BME280;10778;48.962;9.018;2023-05-20T00:44:16;99225.69;;;8.84;100.00
21240;BME280;10778;48.962;9.018;2023-05-20T00:46:45;99222.22;;;8.83;100.00
21240;BME280;10778;48.962;9.018;2023-05-20T00:49:13;99223.75;;;8.86;100.00
21240;BME280;10778;48.962;9.018;2023-05-20T00:51:39;99224.47;;;8.88;100.00
21240;BME280;10778;48.962;9.018;2023-05-20T00:54:05;99219.66;;;8.93;100.00
21240;BME280;10778;48.962;9.018;2023-05-20T00:56:31;99208.22;;;8.94;100.00
21240;BME280;10778;48.962;9.018;2023-05-20T00:58:57;99213.34;;;8.95;100.00
21240;BME280;10778;48.962;9.018;2023-05-20T01:01:23;99215.13;;;8.95;100.00
21240;BME280;10778;48.962;9.018;2023-05-20T01:03:50;99211.88;;;9.03;100.00
21240;BME280;10778;48.962;9.018;2023-05-20T01:06:16;99207.81;;;9.10;100.00
21240;BME280;10778;48.962;9.018;2023-05-20T01:08:42;99215.44;;;9.13;100.00
21240;BME280;10778;48.962;9.018;2023-05-20T01:11:36;99213.84;;;9.22;100.00
21240;BME280;10778;48.962;9.018;2023-05-20T01:14:06;99209.72;;;9.29;100.00
21240;BME280;10778;48.962;9.018;2023-05-20T01:16:34;99213.78;;;9.33;100.00
21240;BME280;10778;48.962;9.018;2023-05-20T01:19:01;99209.69;;;9.41;100.00
21240;BME280;10778;48.962;9.018;2023-05-20T01:21:32;99207.25;;;9.49;100.00
21240;BME280;10778;48.962;9.018;2023-05-20T01:23:58;99214.38;;;9.58;100.00
21240;BME280;10778;48.962;9.018;2023-05-20T01:26:26;99209.28;;;9.66;100.00
21240;BME280;10778;48.962;9.018;2023-05-20T01:28:52;99205.88;;;9.76;100.00
21240;BME280;10778;48.962;9.018;2023-05-20T01:31:26;99209.66;;;9.83;100.00
21240;BME280;10778;48.962;9.018;2023-05-20T01:33:56;99209.31;;;9.98;100.00
21240;BME280;10778;48.962;9.018;2023-05-20T01:36:23;99203.66;;;10.02;100.00
21240;BME280;10778;48.962;9.018;2023-05-20T01:38:52;99210.22;;;10.18;100.00
21240;BME280;10778;48.962;9.018;2023-05-20T01:41:20;99198.94;;;10.27;100.00
21240;BME280;10778;48.962;9.018;2023-05-20T01:43:48;99203.00;;;10.41;100.00
21240;BME280;10778;48.962;9.018;2023-05-20T01:46:14;99210.63;;;10.54;100.00
21240;BME280;10778;48.962;9.018;2023-05-20T01:48:40;99209.28;;;10.60;100.00
21240;BME280;10778;48.962;9.018;2023-05-20T01:51:07;99200.84;;;10.76;100.00
21240;BME280;10778;48.962;9.018;2023-05-20T01:53:33;99202.94;;;10.82;99.39
21240;BME280;10778;48.962;9.018;2023-05-20T01:55:59;99195.06;;;10.92;99.29
21240;BME280;10778;48.962;9.018;2023-05-20T01:58:26;99196.16;;;10.99;98.56
21240;BME280;10778;48.962;9.018;2023-05-20T02:00:52;99195.06;;;11.12;97.67
21240;BME280;10778;48.962;9.018;2023-05-20T02:03:17;99189.50;;;11.15;97.50
21240;BME280;10778;48.962;9.018;2023-05-20T02:05:43;99192.00;;;11.16;96.66
21240;BME280;10778;48.962;9.018;2023-05-20T02:08:10;99192.81;;;11.17;97.04
21240;BME280;10778;48.962;9.018;2023-05-20T02:10:36;99193.66;;;11.17;96.71
21240;BME280;10778;48.962;9.018;2023-05-20T02:13:02;99190.19;;;11.17;96.56
21240;BME280;10778;48.962;9.018;2023-05-20T02:15:29;99189.66;;;11.23;96.50
21240;BME280;10778;48.962;9.018;2023-05-20T02:17:56;99192.25;;;11.33;95.37
21240;BME280;10778;48.962;9.018;2023-05-20T02:20:22;99182.16;;;11.28;95.25
21240;BME280;10778;48.962;9.018;2023-05-20T02:22:48;99181.31;;;11.28;95.88
21240;BME280;10778;48.962;9.018;2023-05-20T02:25:14;99178.94;;;11.24;95.94
21240;BME280;10778;48.962;9.018;2023-05-20T02:27:42;99170.94;;;11.26;95.38
21240;BME280;10778;48.962;9.018;2023-05-20T02:30:08;99170.34;;;11.32;95.44
21240;BME280;10778;48.962;9.018;2023-05-20T02:32:35;99168.97;;;11.28;96.17
21240;BME280;10778;48.962;9.018;2023-05-20T02:35:01;99167.88;;;11.31;95.13
21240;BME280;10778;48.962;9.018;2023-05-20T02:37:27;99164.69;;;11.27;96.10
21240;BME280;10778;48.962;9.018;2023-05-20T02:39:53;99165.09;;;11.32;94.90
21240;BME280;10778;48.962;9.018;2023-05-20T02:42:20;99161.38;;;11.25;95.39
21240;BME280;10778;48.962;9.018;2023-05-20T02:44:47;99170.25;;;11.24;95.88
21240;BME280;10778;48.962;9.018;2023-05-20T02:47:13;99171.06;;;11.24;95.46
21240;BME280;10778;48.962;9.018;2023-05-20T02:49:39;99168.97;;;11.38;95.09
21240;BME280;10778;48.962;9.018;2023-05-20T02:52:05;99161.91;;;11.38;95.08
21240;BME280;10778;48.962;9.018;2023-05-20T02:54:33;99163.81;;;11.36;95.18
21240;BME280;10778;48.962;9.018;2023-05-20T02:56:59;99162.16;;;11.35;95.10
21240;BME280;10778;48.962;9.018;2023-05-20T02:59:25;99159.13;;;11.30;95.40
21240;BME280;10778;48.962;9.018;2023-05-20T03:01:51;99161.63;;;11.32;95.57
21240;BME280;10778;48.962;9.018;2023-05-20T03:04:17;99154.81;;;11.39;95.36
21240;BME280;10778;48.962;9.018;2023-05-20T03:06:44;99157.16;;;11.42;94.97
21240;BME280;10778;48.962;9.018;2023-05-20T03:09:11;99163.56;;;11.40;94.61
21240;BME280;10778;48.962;9.018;2023-05-20T03:11:38;99157.44;;;11.39;94.45
21240;BME280;10778;48.962;9.018;2023-05-20T03:14:04;99158.00;;;11.43;94.59
21240;BME280;10778;48.962;9.018;2023-05-20T03:16:30;99164.22;;;11.51;94.48
21240;BME280;10778;48.962;9.018;2023-05-20T03:18:57;99156.84;;;11.55;93.96
21240;BME280;10778;48.962;9.018;2023-05-20T03:21:23;99157.13;;;11.52;93.37
21240;BME280;10778;48.962;9.018;2023-05-20T03:23:49;99160.31;;;11.56;93.26
21240;BME280;10778;48.962;9.018;2023-05-20T03:26:15;99161.00;;;11.58;93.81
21240;BME280;10778;48.962;9.018;2023-05-20T03:28:41;99166.00;;;11.51;94.73
21240;BME280;10778;48.962;9.018;2023-05-20T03:31:08;99163.28;;;11.43;94.75
21240;BME280;10778;48.962;9.018;2023-05-20T03:33:34;99166.72;;;11.43;95.82
21240;BME280;10778;48.962;9.018;2023-05-20T03:36:00;99166.88;;;11.42;94.84
21240;BME280;10778;48.962;9.018;2023-05-20T03:38:26;99169.94;;;11.37;95.69
21240;BME280;10778;48.962;9.018;2023-05-20T03:40:52;99173.53;;;11.36;96.06
21240;BME280;10778;48.962;9.018;2023-05-20T03:43:18;99174.09;;;11.40;95.58
21240;BME280;10778;48.962;9.018;2023-05-20T03:45:44;99171.00;;;11.44;94.85
21240;BME280;10778;48.962;9.018;2023-05-20T03:48:12;99175.31;;;11.45;94.78
21240;BME280;10778;48.962;9.018;2023-05-20T03:50:38;99174.06;;;11.49;94.94
21240;BME280;10778;48.962;9.018;2023-05-20T03:53:04;99177.25;;;11.53;94.00
21240;BME280;10778;48.962;9.018;2023-05-20T03:55:37;99184.16;;;11.54;94.39
21240;BME280;10778;48.962;9.018;2023-05-20T03:58:05;99181.00;;;11.50;95.30
21240;BME280;10778;48.962;9.018;2023-05-20T04:00:32;99182.25;;;11.46;95.48
21240;BME280;10778;48.962;9.018;2023-05-20T04:02:59;99178.66;;;11.47;94.96
21240;BME280;10778;48.962;9.018;2023-05-20T04:05:25;99176.88;;;11.38;95.99
21240;BME280;10778;48.962;9.018;2023-05-20T04:07:53;99181.72;;;11.33;96.45
21240;BME280;10778;48.962;9.018;2023-05-20T04:10:21;99187.25;;;11.30;97.17
21240;BME280;10778;48.962;9.018;2023-05-20T04:12:47;99188.50;;;11.26;97.11
21240;BME280;10778;48.962;9.018;2023-05-20T04:15:13;99181.56;;;11.34;96.04
21240;BME280;10778;48.962;9.018;2023-05-20T04:17:48;99179.63;;;11.27;97.62
21240;BME280;10778;48.962;9.018;2023-05-20T04:20:15;99179.94;;;11.23;97.54
21240;BME280;10778;48.962;9.018;2023-05-20T04:22:41;99182.72;;;11.22;97.42
21240;BME280;10778;48.962;9.018;2023-05-20T04:25:07;99176.72;;;11.20;97.95
21240;BME280;10778;48.962;9.018;2023-05-20T04:27:34;99178.25;;;11.22;97.92
21240;BME280;10778;48.962;9.018;2023-05-20T04:30:00;99173.97;;;11.21;97.90
21240;BME280;10778;48.962;9.018;2023-05-20T04:32:31;99176.47;;;11.33;97.35
21240;BME280;10778;48.962;9.018;2023-05-20T04:34:59;99170.63;;;11.29;97.59
21240;BME280;10778;48.962;9.018;2023-05-20T04:37:27;99170.50;;;11.31;97.66
21240;BME280;10778;48.962;9.018;2023-05-20T04:39:53;99165.50;;;11.28;97.66
21240;BME280;10778;48.962;9.018;2023-05-20T04:42:19;99164.13;;;11.23;99.30
21240;BME280;10778;48.962;9.018;2023-05-20T04:44:47;99164.97;;;11.24;98.73
21240;BME280;10778;48.962;9.018;2023-05-20T04:47:14;99167.59;;;11.24;98.95
21240;BME280;10778;48.962;9.018;2023-05-20T04:49:40;99166.47;;;11.27;98.32
21240;BME280;10778;48.962;9.018;2023-05-20T04:52:06;99160.09;;;11.29;99.55
21240;BME280;10778;48.962;9.018;2023-05-20T04:54:33;99157.88;;;11.34;98.08
21240;BME280;10778;48.962;9.018;2023-05-20T04:56:59;99151.75;;;11.44;97.87
21240;BME280;10778;48.962;9.018;2023-05-20T04:59:26;99151.38;;;11.38;98.90
21240;BME280;10778;48.962;9.018;2023-05-20T05:01:52;99153.97;;;11.48;98.61
21240;BME280;10778;48.962;9.018;2023-05-20T05:04:18;99155.91;;;11.56;97.74
21240;BME280;10778;48.962;9.018;2023-05-20T05:06:43;99151.31;;;11.58;97.29
21240;BME280;10778;48.962;9.018;2023-05-20T05:09:10;99157.22;;;11.70;97.24
21240;BME280;10778;48.962;9.018;2023-05-20T05:11:39;99158.88;;;11.71;96.77
21240;BME280;10778;48.962;9.018;2023-05-20T05:14:05;99159.88;;;11.70;96.90
21240;BME280;10778;48.962;9.018;2023-05-20T05:16:31;99154.44;;;11.72;97.01
21240;BME280;10778;48.962;9.018;2023-05-20T05:18:57;99155.38;;;11.90;95.94
21240;BME280;10778;48.962;9.018;2023-05-20T05:21:25;99147.84;;;12.23;93.87
21240;BME280;10778;48.962;9.018;2023-05-20T05:23:52;99144.03;;;12.36;93.43
21240;BME280;10778;48.962;9.018;2023-05-20T05:26:18;99142.09;;;12.74;91.16
21240;BME280;10778;48.962;9.018;2023-05-20T05:28:44;99140.28;;;13.37;88.76
21240;BME280;10778;48.962;9.018;2023-05-20T05:31:10;99142.59;;;13.59;86.63
21240;BME280;10778;48.962;9.018;2023-05-20T05:33:36;99128.94;;;14.06;84.65
21240;BME280;10778;48.962;9.018;2023-05-20T05:36:02;99128.56;;;13.93;84.32
21240;BME280;10778;48.962;9.018;2023-05-20T05:38:29;99123.31;;;14.10;84.52
21240;BME280;10778;48.962;9.018;2023-05-20T05:40:55;99114.97;;;14.31;82.94
21240;BME280;10778;48.962;9.018;2023-05-20T05:43:22;99122.09;;;14.39;82.86
21240;BME280;10778;48.962;9.018;2023-05-20T05:45:49;99123.06;;;14.29;81.63
21240;BME280;10778;48.962;9.018;2023-05-20T05:48:15;99121.28;;;14.63;81.97
21240;BME280;10778;48.962;9.018;2023-05-20T05:50:45;99123.63;;;14.66;81.18
21240;BME280;10778;48.962;9.018;2023-05-20T05:53:13;99119.50;;;15.13;80.45
21240;BME280;10778;48.962;9.018;2023-05-20T05:55:45;99114.34;;;15.28;80.29
21240;BME280;10778;48.962;9.018;2023-05-20T05:58:11;99110.94;;;15.68;77.75
21240;BME280;10778;48.962;9.018;2023-05-20T06:00:38;99113.38;;;15.94;76.83
21240;BME280;10778;48.962;9.018;2023-05-20T06:03:04;99111.69;;;15.28;77.67
21240;BME280;10778;48.962;9.018;2023-05-20T06:05:33;99110.69;;;15.29;78.26
21240;BME280;10778;48.962;9.018;2023-05-20T06:07:59;99108.63;;;15.64;76.42
21240;BME280;10778;48.962;9.018;2023-05-20T06:10:25;99103.91;;;15.83;75.96
21240;BME280;10778;48.962;9.018;2023-05-20T06:12:51;99108.09;;;15.77;77.13
21240;BME280;10778;48.962;9.018;2023-05-20T06:15:17;99098.53;;;16.08;75.76
21240;BME280;10778;48.962;9.018;2023-05-20T06:17:44;99093.31;;;16.46;74.74
21240;BME280;10778;48.962;9.018;2023-05-20T06:20:11;99103.34;;;16.04;76.01
21240;BME280;10778;48.962;9.018;2023-05-20T06:22:37;99100.28;;;16.47;73.80
21240;BME280;10778;48.962;9.018;2023-05-20T06:25:03;99095.00;;;16.16;74.98
21240;BME280;10778;48.962;9.018;2023-05-20T06:27:33;99100.69;;;16.83;73.38
21240;BME280;10778;48.962;9.018;2023-05-20T06:29:59;99101.56;;;16.98;72.96
21240;BME280;10778;48.962;9.018;2023-05-20T06:32:26;99095.94;;;16.78;73.16
21240;BME280;10778;48.962;9.018;2023-05-20T06:34:53;99089.28;;;16.97;73.23
21240;BME280;10778;48.962;9.018;2023-05-20T06:37:19;99091.53;;;16.85;73.00
21240;BME280;10778;48.962;9.018;2023-05-20T06:39:45;99085.75;;;17.20;72.58
21240;BME280;10778;48.962;9.018;2023-05-20T06:42:12;99085.47;;;17.00;73.20
21240;BME280;10778;48.962;9.018;2023-05-20T06:44:46;99076.53;;;16.92;72.54
21240;BME280;10778;48.962;9.018;2023-05-20T06:47:19;99076.78;;;16.59;74.42
21240;BME280;10778;48.962;9.018;2023-05-20T06:49:47;99075.50;;;16.93;73.41
21240;BME280;10778;48.962;9.018;2023-05-20T06:52:13;99077.50;;;16.53;74.39
21240;BME280;10778;48.962;9.018;2023-05-20T06:54:40;99082.88;;;16.68;74.79
21240;BME280;10778;48.962;9.018;2023-05-20T06:57:08;99078.47;;;16.37;75.78
21240;BME280;10778;48.962;9.018;2023-05-20T06:59:35;99086.56;;;16.12;76.86
21240;BME280;10778;48.962;9.018;2023-05-20T07:02:03;99078.13;;;16.63;77.21
21240;BME280;10778;48.962;9.018;2023-05-20T07:04:29;99072.84;;;17.17;72.92
21240;BME280;10778;48.962;9.018;2023-05-20T07:06:55;99066.34;;;18.16;71.55
21240;BME280;10778;48.962;9.018;2023-05-20T07:09:21;99058.47;;;17.26;72.11
21240;BME280;10778;48.962;9.018;2023-05-20T07:11:47;99066.50;;;17.03;72.83
21240;BME280;10778;48.962;9.018;2023-05-20T07:14:13;99068.00;;;17.51;71.07
21240;BME280;10778;48.962;9.018;2023-05-20T07:16:39;99061.00;;;17.80;71.09
21240;BME280;10778;48.962;9.018;2023-05-20T07:19:05;99065.16;;;17.52;71.57
21240;BME280;10778;48.962;9.018;2023-05-20T07:21:32;99051.41;;;17.48;71.86
21240;BME280;10778;48.962;9.018;2023-05-20T07:24:24;99051.88;;;18.04;70.86
21240;BME280;10778;48.962;9.018;2023-05-20T07:26:50;99047.66;;;18.10;70.05
21240;BME280;10778;48.962;9.018;2023-05-20T07:29:16;99045.84;;;18.32;70.26
21240;BME280;10778;48.962;9.018;2023-05-20T07:31:43;99038.63;;;18.26;68.35
21240;BME280;10778;48.962;9.018;2023-05-20T07:34:09;99044.75;;;18.26;69.84
21240;BME280;10778;48.962;9.018;2023-05-20T07:36:35;99035.50;;;18.44;69.22
21240;BME280;10778;48.962;9.018;2023-05-20T07:39:04;99033.81;;;18.65;68.79
21240;BME280;10778;48.962;9.018;2023-05-20T07:41:33;99036.88;;;18.90;68.34
21240;BME280;10778;48.962;9.018;2023-05-20T07:44:02;99025.22;;;19.68;64.66
21240;BME280;10778;48.962;9.018;2023-05-20T07:46:29;99034.97;;;19.41;64.97
21240;BME280;10778;48.962;9.018;2023-05-20T07:48:55;99022.25;;;19.92;63.08
21240;BME280;10778;48.962;9.018;2023-05-20T07:51:22;99023.41;;;20.38;62.47
21240;BME280;10778;48.962;9.018;2023-05-20T07:53:48;99018.09;;;20.85;60.25
21240;BME280;10778;48.962;9.018;2023-05-20T07:56:15;99024.25;;;20.72;61.30
21240;BME280;10778;48.962;9.018;2023-05-20T07:58:41;99018.50;;;20.82;62.72
21240;BME280;10778;48.962;9.018;2023-05-20T08:01:08;99011.06;;;20.57;60.21
21240;BME280;10778;48.962;9.018;2023-05-20T08:03:35;99010.66;;;21.00;59.29
21240;BME280;10778;48.962;9.018;2023-05-20T08:06:13;99003.22;;;21.09;59.66
21240;BME280;10778;48.962;9.018;2023-05-20T08:08:41;99005.53;;;20.58;60.51
21240;BME280;10778;48.962;9.018;2023-05-20T08:11:13;98995.94;;;21.37;59.80
21240;BME280;10778;48.962;9.018;2023-05-20T08:13:39;98995.22;;;21.68;58.07
21240;BME280;10778;48.962;9.018;2023-05-20T08:16:05;98999.97;;;20.94;59.42
21240;BME280;10778;48.962;9.018;2023-05-20T08:18:33;98996.56;;;21.32;58.57
21240;BME280;10778;48.962;9.018;2023-05-20T08:21:01;98987.81;;;20.71;59.32
21240;BME280;10778;48.962;9.018;2023-05-20T08:23:27;99002.03;;;20.31;61.10
21240;BME280;10778;48.962;9.018;2023-05-20T08:25:53;99002.66;;;19.64;62.65
21240;BME280;10778;48.962;9.018;2023-05-20T08:28:22;98996.84;;;19.47;63.82
21240;BME280;10778;48.962;9.018;2023-05-20T08:30:48;99000.09;;;19.42;64.41
21240;BME280;10778;48.962;9.018;2023-05-20T08:33:14;98992.31;;;20.03;63.59
21240;BME280;10778;48.962;9.018;2023-05-20T08:35:40;98997.56;;;19.69;65.22
21240;BME280;10778;48.962;9.018;2023-05-20T08:38:06;99001.78;;;19.50;65.61
21240;BME280;10778;48.962;9.018;2023-05-20T08:40:35;99001.59;;;18.88;66.83
21240;BME280;10778;48.962;9.018;2023-05-20T08:43:02;98998.69;;;19.46;65.44
21240;BME280;10778;48.962;9.018;2023-05-20T08:45:33;98993.78;;;19.50;65.02
21240;BME280;10778;48.962;9.018;2023-05-20T08:48:04;99001.59;;;19.52;64.66
21240;BME280;10778;48.962;9.018;2023-05-20T08:50:30;98999.66;;;19.39;65.26
21240;BME280;10778;48.962;9.018;2023-05-20T08:52:56;99000.88;;;19.78;66.42
21240;BME280;10778;48.962;9.018;2023-05-20T08:55:41;98997.66;;;20.03;64.01
21240;BME280;10778;48.962;9.018;2023-05-20T08:58:08;98991.75;;;20.21;63.00
21240;BME280;10778;48.962;9.018;2023-05-20T09:00:34;98993.97;;;20.04;62.74
21240;BME280;10778;48.962;9.018;2023-05-20T09:03:01;99004.22;;;19.45;63.25
21240;BME280;10778;48.962;9.018;2023-05-20T09:05:28;99006.97;;;19.65;64.20
21240;BME280;10778;48.962;9.018;2023-05-20T09:08:08;99001.63;;;19.65;64.59
21240;BME280;10778;48.962;9.018;2023-05-20T09:10:35;99001.06;;;19.83;64.05
21240;BME280;10778;48.962;9.018;2023-05-20T09:13:02;99008.44;;;19.26;65.66
21240;BME280;10778;48.962;9.018;2023-05-20T09:15:29;99008.66;;;19.31;65.23
21240;BME280;10778;48.962;9.018;2023-05-20T09:17:59;99004.59;;;19.35;65.37
21240;BME280;10778;48.962;9.018;2023-05-20T09:20:26;99001.41;;;19.18;66.23
21240;BME280;10778;48.962;9.018;2023-05-20T09:22:58;98991.91;;;19.44;64.94
21240;BME280;10778;48.962;9.018;2023-05-20T09:25:24;98986.41;;;20.61;60.63
21240;BME280;10778;48.962;9.018;2023-05-20T09:27:50;98985.56;;;20.61;61.33
21240;BME280;10778;48.962;9.018;2023-05-20T09:30:20;98990.03;;;19.93;62.29
21240;BME280;10778;48.962;9.018;2023-05-20T09:32:53;98993.78;;;20.26;63.35
21240;BME280;10778;48.962;9.018;2023-05-20T09:35:23;98988.88;;;20.50;63.78
21240;BME280;10778;48.962;9.018;2023-05-20T09:37:54;98985.59;;;20.54;61.79
21240;BME280;10778;48.962;9.018;2023-05-20T09:40:25;98974.09;;;20.81;61.02
21240;BME280;10778;48.962;9.018;2023-05-20T09:42:53;98984.13;;;20.25;62.15
21240;BME280;10778;48.962;9.018;2023-05-20T09:45:21;98977.31;;;19.95;64.44
21240;BME280;10778;48.962;9.018;2023-05-20T09:47:50;98979.63;;;20.32;62.93
21240;BME280;10778;48.962;9.018;2023-05-20T09:50:17;98973.19;;;21.66;60.14
21240;BME280;10778;48.962;9.018;2023-05-20T09:52:47;98963.66;;;21.31;59.65
21240;BME280;10778;48.962;9.018;2023-05-20T09:55:15;98966.66;;;20.09;61.47
21240;BME280;10778;48.962;9.018;2023-05-20T09:57:42;98966.03;;;20.27;62.21
21240;BME280;10778;48.962;9.018;2023-05-20T10:00:08;98962.34;;;21.48;58.74
21240;BME280;10778;48.962;9.018;2023-05-20T10:02:43;98968.69;;;20.94;60.74
21240;BME280;10778;48.962;9.018;2023-05-20T10:05:16;98968.31;;;20.30;60.46
21240;BME280;10778;48.962;9.018;2023-05-20T10:07:59;98975.19;;;19.84;62.80
21240;BME280;10778;48.962;9.018;2023-05-20T10:13:13;98953.00;;;21.64;59.53
21240;BME280;10778;48.962;9.018;2023-05-20T10:18:47;98951.06;;;21.84;56.48
21240;BME280;10778;48.962;9.018;2023-05-20T10:21:16;98944.34;;;21.23;57.59
21240;BME280;10778;48.962;9.018;2023-05-20T10:23:42;98935.69;;;21.73;57.62
21240;BME280;10778;48.962;9.018;2023-05-20T10:26:09;98941.47;;;22.02;56.65
21240;BME280;10778;48.962;9.018;2023-05-20T10:28:36;98938.66;;;22.48;56.46
21240;BME280;10778;48.962;9.018;2023-05-20T10:31:19;98939.50;;;20.86;58.93
21240;BME280;10778;48.962;9.018;2023-05-20T10:33:46;98933.13;;;21.85;57.23
21240;BME280;10778;48.962;9.018;2023-05-20T10:36:26;98921.41;;;22.99;54.53
21240;BME280;10778;48.962;9.018;2023-05-20T10:38:54;98922.25;;;23.37;53.96
21240;BME280;10778;48.962;9.018;2023-05-20T10:41:22;98908.59;;;22.83;53.76
21240;BME280;10778;48.962;9.018;2023-05-20T10:43:58;98901.72;;;23.24;52.82
21240;BME280;10778;48.962;9.018;2023-05-20T10:46:25;98912.56;;;23.18;55.70
21240;BME280;10778;48.962;9.018;2023-05-20T10:48:51;98903.53;;;23.12;54.73
21240;BME280;10778;48.962;9.018;2023-05-20T10:51:18;98912.78;;;22.79;54.14
21240;BME280;10778;48.962;9.018;2023-05-20T10:53:46;98908.44;;;22.59;54.58
21240;BME280;10778;48.962;9.018;2023-05-20T10:56:16;98912.56;;;22.36;55.80
21240;BME280;10778;48.962;9.018;2023-05-20T10:58:43;98907.94;;;22.87;55.25
21240;BME280;10778;48.962;9.018;2023-05-20T11:01:10;98904.34;;;22.56;54.56
21240;BME280;10778;48.962;9.018;2023-05-20T11:03:37;98904.59;;;21.72;56.29
21240;BME280;10778;48.962;9.018;2023-05-20T11:06:11;98904.16;;;21.29;57.71
21240;BME280;10778;48.962;9.018;2023-05-20T11:08:38;98898.88;;;21.55;56.64
21240;BME280;10778;48.962;9.018;2023-05-20T11:11:04;98896.16;;;22.26;56.22
21240;BME280;10778;48.962;9.018;2023-05-20T11:13:31;98895.19;;;22.83;54.35
21240;BME280;10778;48.962;9.018;2023-05-20T11:15:57;98883.44;;;23.02;54.73
21240;BME280;10778;48.962;9.018;2023-05-20T11:18:26;98885.91;;;23.35;52.71
21240;BME280;10778;48.962;9.018;2023-05-20T11:20:55;98871.72;;;22.97;53.04
21240;BME280;10778;48.962;9.018;2023-05-20T11:23:21;98870.31;;;22.94;53.73
21240;BME280;10778;48.962;9.018;2023-05-20T11:25:51;98885.38;;;22.33;55.60
21240;BME280;10778;48.962;9.018;2023-05-20T11:28:18;98872.84;;;23.08;54.44
21240;BME280;10778;48.962;9.018;2023-05-20T11:30:44;98862.78;;;23.03;53.05
21240;BME280;10778;48.962;9.018;2023-05-20T11:33:11;98851.22;;;23.52;52.49
21240;BME280;10778;48.962;9.018;2023-05-20T11:35:50;98864.31;;;23.11;54.22
21240;BME280;10778;48.962;9.018;2023-05-20T11:38:18;98855.69;;;23.70;52.48
21240;BME280;10778;48.962;9.018;2023-05-20T11:40:46;98842.44;;;24.11;51.67
21240;BME280;10778;48.962;9.018;2023-05-20T11:43:13;98854.13;;;24.28;51.69
21240;BME280;10778;48.962;9.018;2023-05-20T11:45:43;98860.22;;;23.27;53.80
21240;BME280;10778;48.962;9.018;2023-05-20T11:48:10;98857.69;;;23.13;54.07
21240;BME280;10778;48.962;9.018;2023-05-20T11:50:42;98854.03;;;23.69;53.19
21240;BME280;10778;48.962;9.018;2023-05-20T11:53:13;98843.66;;;23.84;53.50
21240;BME280;10778;48.962;9.018;2023-05-20T11:55:57;98839.97;;;23.97;52.34
21240;BME280;10778;48.962;9.018;2023-05-20T11:58:25;98846.50;;;23.16;53.67
21240;BME280;10778;48.962;9.018;2023-05-20T12:00:52;98845.38;;;23.24;53.79
21240;BME280;10778;48.962;9.018;2023-05-20T12:03:18;98839.88;;;23.00;53.84
21240;BME280;10778;48.962;9.018;2023-05-20T12:05:44;98843.56;;;22.50;54.89
21240;BME280;10778;48.962;9.018;2023-05-20T12:08:12;98844.97;;;22.34;54.50
21240;BME280;10778;48.962;9.018;2023-05-20T12:10:38;98839.38;;;23.41;53.58
21240;BME280;10778;48.962;9.018;2023-05-20T12:13:04;98836.38;;;23.49;51.62
21240;BME280;10778;48.962;9.018;2023-05-20T12:15:34;98837.66;;;24.13;50.58
21240;BME280;10778;48.962;9.018;2023-05-20T12:18:01;98832.50;;;23.99;51.01
21240;BME280;10778;48.962;9.018;2023-05-20T12:20:28;98820.63;;;24.72;50.61
21240;BME280;10778;48.962;9.018;2023-05-20T12:22:55;98817.25;;;24.65;50.70
21240;BME280;10778;48.962;9.018;2023-05-20T12:25:22;98818.47;;;24.57;49.32
21240;BME280;10778;48.962;9.018;2023-05-20T12:27:48;98814.13;;;23.84;50.77
21240;BME280;10778;48.962;9.018;2023-05-20T12:30:17;98823.69;;;23.56;50.88
21240;BME280;10778;48.962;9.018;2023-05-20T12:32:44;98806.84;;;22.88;52.43
21240;BME280;10778;48.962;9.018;2023-05-20T12:35:10;98818.00;;;22.66;53.98
21240;BME280;10778;48.962;9.018;2023-05-20T12:37:37;98815.94;;;22.68;53.36
21240;BME280;10778;48.962;9.018;2023-05-20T12:40:04;98813.16;;;23.24;51.41
21240;BME280;10778;48.962;9.018;2023-05-20T12:42:36;98821.22;;;23.55;51.70
21240;BME280;10778;48.962;9.018;2023-05-20T12:45:03;98829.34;;;23.48;51.97
21240;BME280;10778;48.962;9.018;2023-05-20T12:47:31;98821.19;;;23.43;52.30
21240;BME280;10778;48.962;9.018;2023-05-20T12:49:57;98822.06;;;24.51;50.31
21240;BME280;10778;48.962;9.018;2023-05-20T12:52:24;98802.44;;;24.50;47.95
21240;BME280;10778;48.962;9.018;2023-05-20T12:54:54;98809.00;;;24.42;50.57
21240;BME280;10778;48.962;9.018;2023-05-20T12:57:22;98808.69;;;24.15;50.56
21240;BME280;10778;48.962;9.018;2023-05-20T12:59:49;98805.28;;;24.08;51.92
21240;BME280;10778;48.962;9.018;2023-05-20T13:02:15;98804.09;;;23.80;51.67
21240;BME280;10778;48.962;9.018;2023-05-20T13:04:41;98803.09;;;23.62;52.20
21240;BME280;10778;48.962;9.018;2023-05-20T13:07:07;98800.97;;;23.10;52.58